sensor_id;sensor_type;location;lat;lon;timestamp;temperature;humidity
21439;DHT22;10880;50.302;18.736;2023-12-14T00:09:05;9.60;71.60
21439;DHT22;10880;50.302;18.736;2023-12-14T00:11:40;9.60;71.80
21439;DHT22;10880;50.302;18.736;2023-12-14T00:16:35;9.60;71.60
21439;DHT22;10880;50.302;18.736;2023-12-14T00:36:17;9.60;71.60
21439;DHT22;10880;50.302;18.736;2023-12-14T00:46:07;9.60;71.60
21439;DHT22;10880;50.302;18.736;2023-12-14T00:53:29;9.50;71.60
21439;DHT22;10880;50.302;18.736;2023-12-14T00:55:56;9.70;71.70
21439;DHT22;10880;50.302;18.736;2023-12-14T01:20:24;9.50;71.50
21439;DHT22;10880;50.302;18.736;2023-12-14T01:30:11;9.50;71.50
21439;DHT22;10880;50.302;18.736;2023-12-14T01:35:05;9.50;71.60
21439;DHT22;10880;50.302;18.736;2023-12-14T01:39:58;9.50;71.60
21439;DHT22;10880;50.302;18.736;2023-12-14T01:44:54;9.50;71.80
21439;DHT22;10880;50.302;18.736;2023-12-14T01:47:21;9.40;71.70
21439;DHT22;10880;50.302;18.736;2023-12-14T01:52:14;9.50;71.70
21439;DHT22;10880;50.302;18.736;2023-12-14T01:59:37;9.50;71.60
21439;DHT22;10880;50.302;18.736;2023-12-14T02:02:04;9.50;71.60
21439;DHT22;10880;50.302;18.736;2023-12-14T02:14:22;9.40;71.50
21439;DHT22;10880;50.302;18.736;2023-12-14T02:21:44;9.30;71.90
21439;DHT22;10880;50.302;18.736;2023-12-14T02:26:37;9.30;71.50
21439;DHT22;10880;50.302;18.736;2023-12-14T02:31:31;9.40;71.60
21439;DHT22;10880;50.302;18.736;2023-12-14T02:38:51;9.30;71.60
21439;DHT22;10880;50.302;18.736;2023-12-14T02:46:12;9.20;71.50
21439;DHT22;10880;50.302;18.736;2023-12-14T02:51:13;9.20;71.50
21439;DHT22;10880;50.302;18.736;2023-12-14T02:53:41;9.20;71.50
21439;DHT22;10880;50.302;18.736;2023-12-14T02:56:10;9.20;71.50
21439;DHT22;10880;50.302;18.736;2023-12-14T03:08:27;9.10;71.60
21439;DHT22;10880;50.302;18.736;2023-12-14T03:15:47;9.20;71.60
21439;DHT22;10880;50.302;18.736;2023-12-14T03:37:53;9.00;71.50
21439;DHT22;10880;50.302;18.736;2023-12-14T03:40:20;9.00;71.70
21439;DHT22;10880;50.302;18.736;2023-12-14T03:50:07;9.10;71.70
21439;DHT22;10880;50.302;18.736;2023-12-14T03:55:02;9.20;72.10
21439;DHT22;10880;50.302;18.736;2023-12-14T04:04:52;9.10;71.50
21439;DHT22;10880;50.302;18.736;2023-12-14T04:07:18;9.10;71.60
21439;DHT22;10880;50.302;18.736;2023-12-14T04:19:35;9.00;71.70
21439;DHT22;10880;50.302;18.736;2023-12-14T04:22:02;9.00;71.70
21439;DHT22;10880;50.302;18.736;2023-12-14T04:24:30;9.00;71.60
21439;DHT22;10880;50.302;18.736;2023-12-14T04:29:23;9.10;71.70
21439;DHT22;10880;50.302;18.736;2023-12-14T04:31:50;8.90;71.70
21439;DHT22;10880;50.302;18.736;2023-12-14T04:34:16;9.00;71.60
21439;DHT22;10880;50.302;18.736;2023-12-14T04:39:12;9.00;71.70
21439;DHT22;10880;50.302;18.736;2023-12-14T04:49:00;9.00;71.80
21439;DHT22;10880;50.302;18.736;2023-12-14T04:51:26;9.00;71.90
21439;DHT22;10880;50.302;18.736;2023-12-14T04:53:54;9.00;71.60
21439;DHT22;10880;50.302;18.736;2023-12-14T04:56:21;9.00;71.60
21439;DHT22;10880;50.302;18.736;2023-12-14T04:58:48;9.00;71.70
21439;DHT22;10880;50.302;18.736;2023-12-14T05:08:36;9.00;71.90
21439;DHT22;10880;50.302;18.736;2023-12-14T05:23:20;9.00;71.90
21439;DHT22;10880;50.302;18.736;2023-12-14T05:25:47;9.00;72.00
21439;DHT22;10880;50.302;18.736;2023-12-14T05:30:41;9.00;72.00
21439;DHT22;10880;50.302;18.736;2023-12-14T05:45:21;9.00;72.00
21439;DHT22;10880;50.302;18.736;2023-12-14T05:55:09;9.00;72.00
21439;DHT22;10880;50.302;18.736;2023-12-14T06:00:06;9.00;71.90
21439;DHT22;10880;50.302;18.736;2023-12-14T06:02:33;9.00;72.00
21439;DHT22;10880;50.302;18.736;2023-12-14T06:07:29;9.00;72.00
21439;DHT22;10880;50.302;18.736;2023-12-14T06:17:17;9.10;72.30
21439;DHT22;10880;50.302;18.736;2023-12-14T06:19:44;9.00;72.60
21439;DHT22;10880;50.302;18.736;2023-12-14T06:29:32;9.00;72.10
21439;DHT22;10880;50.302;18.736;2023-12-14T06:34:26;9.00;72.10
21439;DHT22;10880;50.302;18.736;2023-12-14T06:39:20;9.10;72.10
21439;DHT22;10880;50.302;18.736;2023-12-14T06:41:47;9.00;72.10
21439;DHT22;10880;50.302;18.736;2023-12-14T06:44:14;9.10;72.20
21439;DHT22;10880;50.302;18.736;2023-12-14T07:03:51;9.20;72.40
21439;DHT22;10880;50.302;18.736;2023-12-14T07:06:19;9.00;72.10
21439;DHT22;10880;50.302;18.736;2023-12-14T07:16:14;9.00;72.30
21439;DHT22;10880;50.302;18.736;2023-12-14T07:18:41;8.90;72.30
21439;DHT22;10880;50.302;18.736;2023-12-14T07:21:08;9.00;72.40
21439;DHT22;10880;50.302;18.736;2023-12-14T07:26:03;8.90;72.30
21439;DHT22;10880;50.302;18.736;2023-12-14T07:33:26;9.00;72.40
21439;DHT22;10880;50.302;18.736;2023-12-14T07:35:53;9.00;72.50
21439;DHT22;10880;50.302;18.736;2023-12-14T07:38:21;9.00;72.50
21439;DHT22;10880;50.302;18.736;2023-12-14T07:40:48;9.00;72.40
21439;DHT22;10880;50.302;18.736;2023-12-14T07:57:58;9.10;72.50
21439;DHT22;10880;50.302;18.736;2023-12-14T08:20:07;9.20;72.60
21439;DHT22;10880;50.302;18.736;2023-12-14T08:29:56;9.10;72.40
21439;DHT22;10880;50.302;18.736;2023-12-14T08:32:23;9.20;72.50
21439;DHT22;10880;50.302;18.736;2023-12-14T08:37:19;9.10;72.30
21439;DHT22;10880;50.302;18.736;2023-12-14T08:49:35;9.10;72.50
21439;DHT22;10880;50.302;18.736;2023-12-14T08:52:03;9.00;72.50
21439;DHT22;10880;50.302;18.736;2023-12-14T08:54:31;9.00;72.50
21439;DHT22;10880;50.302;18.736;2023-12-14T09:14:09;9.20;72.80
21439;DHT22;10880;50.302;18.736;2023-12-14T09:16:36;9.20;72.80
21439;DHT22;10880;50.302;18.736;2023-12-14T09:19:03;9.20;72.80
21439;DHT22;10880;50.302;18.736;2023-12-14T09:23:57;9.20;72.60
21439;DHT22;10880;50.302;18.736;2023-12-14T09:28:51;9.20;72.80
21439;DHT22;10880;50.302;18.736;2023-12-14T09:38:39;9.30;72.90
21439;DHT22;10880;50.302;18.736;2023-12-14T09:41:06;9.20;72.70
21439;DHT22;10880;50.302;18.736;2023-12-14T09:46:00;9.30;72.70
21439;DHT22;10880;50.302;18.736;2023-12-14T09:48:28;9.30;72.60
21439;DHT22;10880;50.302;18.736;2023-12-14T09:50:56;9.30;72.70
21439;DHT22;10880;50.302;18.736;2023-12-14T10:03:25;9.30;72.60
21439;DHT22;10880;50.302;18.736;2023-12-14T10:05:53;9.30;72.40
21439;DHT22;10880;50.302;18.736;2023-12-14T10:10:50;9.10;72.50
21439;DHT22;10880;50.302;18.736;2023-12-14T10:15:46;9.20;72.40
21439;DHT22;10880;50.302;18.736;2023-12-14T10:18:22;9.20;72.60
21439;DHT22;10880;50.302;18.736;2023-12-14T10:23:21;9.20;72.70
21439;DHT22;10880;50.302;18.736;2023-12-14T10:25:48;9.40;72.80
21439;DHT22;10880;50.302;18.736;2023-12-14T10:33:09;9.10;72.80
21439;DHT22;10880;50.302;18.736;2023-12-14T10:35:36;9.20;72.80
21439;DHT22;10880;50.302;18.736;2023-12-14T10:38:05;9.20;72.80
21439;DHT22;10880;50.302;18.736;2023-12-14T10:40:36;9.20;72.90
21439;DHT22;10880;50.302;18.736;2023-12-14T10:43:07;9.20;73.20
21439;DHT22;10880;50.302;18.736;2023-12-14T10:45:34;9.20;72.90
21439;DHT22;10880;50.302;18.736;2023-12-14T10:48:06;9.20;72.80
21439;DHT22;10880;50.302;18.736;2023-12-14T10:55:37;9.30;73.00
21439;DHT22;10880;50.302;18.736;2023-12-14T10:58:04;9.20;72.90
21439;DHT22;10880;50.302;18.736;2023-12-14T11:00:31;9.20;72.80
21439;DHT22;10880;50.302;18.736;2023-12-14T11:02:59;9.20;72.90
21439;DHT22;10880;50.302;18.736;2023-12-14T11:05:27;9.30;72.90
21439;DHT22;10880;50.302;18.736;2023-12-14T11:08:04;9.30;72.80
21439;DHT22;10880;50.302;18.736;2023-12-14T11:10:43;9.30;72.80
21439;DHT22;10880;50.302;18.736;2023-12-14T11:15:49;9.30;72.70
21439;DHT22;10880;50.302;18.736;2023-12-14T11:20:58;9.40;72.90
21439;DHT22;10880;50.302;18.736;2023-12-14T11:25:58;9.40;72.80
21439;DHT22;10880;50.302;18.736;2023-12-14T11:28:38;9.40;72.90
21439;DHT22;10880;50.302;18.736;2023-12-14T11:31:12;9.40;72.90
21439;DHT22;10880;50.302;18.736;2023-12-14T11:41:03;9.40;73.10
21439;DHT22;10880;50.302;18.736;2023-12-14T11:43:38;9.40;72.90
21439;DHT22;10880;50.302;18.736;2023-12-14T11:55:53;9.30;73.00
21439;DHT22;10880;50.302;18.736;2023-12-14T12:00:48;9.50;73.00
21439;DHT22;10880;50.302;18.736;2023-12-14T12:03:18;9.50;72.90
21439;DHT22;10880;50.302;18.736;2023-12-14T12:05:49;9.50;72.90
21439;DHT22;10880;50.302;18.736;2023-12-14T12:08:18;9.50;72.80
21439;DHT22;10880;50.302;18.736;2023-12-14T12:10:46;9.50;72.80
21439;DHT22;10880;50.302;18.736;2023-12-14T12:13:17;9.50;73.00
21439;DHT22;10880;50.302;18.736;2023-12-14T12:15:45;9.50;72.90
21439;DHT22;10880;50.302;18.736;2023-12-14T12:18:16;9.50;72.90
21439;DHT22;10880;50.302;18.736;2023-12-14T12:20:43;9.40;73.00
21439;DHT22;10880;50.302;18.736;2023-12-14T12:23:10;9.40;72.90
21439;DHT22;10880;50.302;18.736;2023-12-14T12:30:31;9.50;72.80
21439;DHT22;10880;50.302;18.736;2023-12-14T12:35:25;9.50;72.70
21439;DHT22;10880;50.302;18.736;2023-12-14T12:40:22;9.40;72.50
21439;DHT22;10880;50.302;18.736;2023-12-14T12:42:49;9.50;72.50
21439;DHT22;10880;50.302;18.736;2023-12-14T12:45:39;9.50;72.60
21439;DHT22;10880;50.302;18.736;2023-12-14T12:48:07;9.50;72.70
21439;DHT22;10880;50.302;18.736;2023-12-14T12:53:02;10.80;73.40
21439;DHT22;10880;50.302;18.736;2023-12-14T13:00:24;9.50;72.60
21439;DHT22;10880;50.302;18.736;2023-12-14T13:02:51;9.50;72.50
21439;DHT22;10880;50.302;18.736;2023-12-14T13:05:19;9.60;72.50
21439;DHT22;10880;50.302;18.736;2023-12-14T13:12:45;9.50;72.60
21439;DHT22;10880;50.302;18.736;2023-12-14T13:20:06;9.50;72.40
21439;DHT22;10880;50.302;18.736;2023-12-14T13:22:33;9.50;72.40
21439;DHT22;10880;50.302;18.736;2023-12-14T13:25:00;9.50;72.40
21439;DHT22;10880;50.302;18.736;2023-12-14T13:27:27;9.40;72.40
21439;DHT22;10880;50.302;18.736;2023-12-14T13:29:55;9.50;72.30
21439;DHT22;10880;50.302;18.736;2023-12-14T13:32:22;9.50;72.50
21439;DHT22;10880;50.302;18.736;2023-12-14T13:34:49;9.40;72.30
21439;DHT22;10880;50.302;18.736;2023-12-14T13:37:15;9.50;72.50
21439;DHT22;10880;50.302;18.736;2023-12-14T13:39:42;9.40;72.50
21439;DHT22;10880;50.302;18.736;2023-12-14T13:42:09;9.40;72.40
21439;DHT22;10880;50.302;18.736;2023-12-14T13:47:04;9.40;72.40
21439;DHT22;10880;50.302;18.736;2023-12-14T13:51:58;9.40;72.50
21439;DHT22;10880;50.302;18.736;2023-12-14T13:54:25;9.40;72.50
21439;DHT22;10880;50.302;18.736;2023-12-14T13:56:59;9.40;72.40
21439;DHT22;10880;50.302;18.736;2023-12-14T13:59:28;9.40;72.50
21439;DHT22;10880;50.302;18.736;2023-12-14T14:01:57;9.40;72.40
21439;DHT22;10880;50.302;18.736;2023-12-14T14:06:54;9.40;72.40
21439;DHT22;10880;50.302;18.736;2023-12-14T14:09:23;9.50;72.50
21439;DHT22;10880;50.302;18.736;2023-12-14T14:14:24;9.40;72.40
21439;DHT22;10880;50.302;18.736;2023-12-14T14:16:53;9.40;72.50
21439;DHT22;10880;50.302;18.736;2023-12-14T14:19:22;9.40;72.40
21439;DHT22;10880;50.302;18.736;2023-12-14T14:21:56;9.40;72.40
21439;DHT22;10880;50.302;18.736;2023-12-14T14:26:49;9.40;72.50
21439;DHT22;10880;50.302;18.736;2023-12-14T14:29:16;9.40;72.50
21439;DHT22;10880;50.302;18.736;2023-12-14T14:44:12;9.40;72.40
21439;DHT22;10880;50.302;18.736;2023-12-14T14:51:35;9.40;72.40
21439;DHT22;10880;50.302;18.736;2023-12-14T15:03:51;7.70;71.50
21439;DHT22;10880;50.302;18.736;2023-12-14T15:08:47;9.30;72.50
21439;DHT22;10880;50.302;18.736;2023-12-14T15:13:42;9.40;72.50
21439;DHT22;10880;50.302;18.736;2023-12-14T15:21:08;9.40;72.40
21439;DHT22;10880;50.302;18.736;2023-12-14T15:26:02;9.30;72.50
21439;DHT22;10880;50.302;18.736;2023-12-14T15:30:57;9.50;72.50
21439;DHT22;10880;50.302;18.736;2023-12-14T15:33:23;9.50;72.60
21439;DHT22;10880;50.302;18.736;2023-12-14T15:53:04;9.50;72.40
21439;DHT22;10880;50.302;18.736;2023-12-14T15:58:00;9.40;72.40
21439;DHT22;10880;50.302;18.736;2023-12-14T16:02:53;9.30;72.40
21439;DHT22;10880;50.302;18.736;2023-12-14T16:07:47;9.40;72.40
21439;DHT22;10880;50.302;18.736;2023-12-14T16:10:14;9.30;72.50
21439;DHT22;10880;50.302;18.736;2023-12-14T16:15:08;9.40;72.60
21439;DHT22;10880;50.302;18.736;2023-12-14T16:25:02;9.40;72.50
21439;DHT22;10880;50.302;18.736;2023-12-14T16:32:26;9.40;72.50
21439;DHT22;10880;50.302;18.736;2023-12-14T16:37:20;9.50;72.40
21439;DHT22;10880;50.302;18.736;2023-12-14T16:39:47;9.50;72.40
21439;DHT22;10880;50.302;18.736;2023-12-14T16:49:40;9.50;72.30
21439;DHT22;10880;50.302;18.736;2023-12-14T16:52:07;9.50;72.30
21439;DHT22;10880;50.302;18.736;2023-12-14T16:54:34;9.40;72.20
21439;DHT22;10880;50.302;18.736;2023-12-14T16:57:02;9.50;72.40
21439;DHT22;10880;50.302;18.736;2023-12-14T16:59:31;9.50;72.30
21439;DHT22;10880;50.302;18.736;2023-12-14T17:09:20;9.50;72.50
21439;DHT22;10880;50.302;18.736;2023-12-14T17:16:45;9.50;72.60
21439;DHT22;10880;50.302;18.736;2023-12-14T17:31:37;9.50;72.40
21439;DHT22;10880;50.302;18.736;2023-12-14T17:36:37;9.40;72.40
21439;DHT22;10880;50.302;18.736;2023-12-14T18:01:12;9.30;72.30
21439;DHT22;10880;50.302;18.736;2023-12-14T18:06:07;9.30;72.50
21439;DHT22;10880;50.302;18.736;2023-12-14T18:08:33;9.30;72.50
21439;DHT22;10880;50.302;18.736;2023-12-14T18:18:20;9.10;72.30
21439;DHT22;10880;50.302;18.736;2023-12-14T18:20:46;9.20;72.20
21439;DHT22;10880;50.302;18.736;2023-12-14T18:23:14;9.20;72.40
21439;DHT22;10880;50.302;18.736;2023-12-14T18:40:24;9.00;72.40
21439;DHT22;10880;50.302;18.736;2023-12-14T18:47:48;9.00;72.40
21439;DHT22;10880;50.302;18.736;2023-12-14T18:52:42;8.90;72.50
21439;DHT22;10880;50.302;18.736;2023-12-14T18:55:09;8.90;72.40
21439;DHT22;10880;50.302;18.736;2023-12-14T18:57:38;9.10;72.40
21439;DHT22;10880;50.302;18.736;2023-12-14T19:00:06;8.90;72.30
21439;DHT22;10880;50.302;18.736;2023-12-14T19:05:04;8.80;72.30
21439;DHT22;10880;50.302;18.736;2023-12-14T19:07:31;8.90;72.50
21439;DHT22;10880;50.302;18.736;2023-12-14T19:22:13;8.70;72.30
21439;DHT22;10880;50.302;18.736;2023-12-14T19:24:41;8.90;72.50
21439;DHT22;10880;50.302;18.736;2023-12-14T19:29:38;8.70;72.60
21439;DHT22;10880;50.302;18.736;2023-12-14T19:37:01;8.80;72.60
21439;DHT22;10880;50.302;18.736;2023-12-14T19:46:54;8.80;72.60
21439;DHT22;10880;50.302;18.736;2023-12-14T19:49:21;8.70;72.30
21439;DHT22;10880;50.302;18.736;2023-12-14T19:51:48;8.70;72.40
21439;DHT22;10880;50.302;18.736;2023-12-14T19:56:45;8.50;72.10
21439;DHT22;10880;50.302;18.736;2023-12-14T20:01:43;8.60;72.30
21439;DHT22;10880;50.302;18.736;2023-12-14T20:06:36;8.40;72.20
21439;DHT22;10880;50.302;18.736;2023-12-14T20:11:32;8.60;72.20
21439;DHT22;10880;50.302;18.736;2023-12-14T20:16:25;8.50;72.20
21439;DHT22;10880;50.302;18.736;2023-12-14T20:26:20;8.50;72.10
21439;DHT22;10880;50.302;18.736;2023-12-14T20:33:42;8.50;72.20
21439;DHT22;10880;50.302;18.736;2023-12-14T20:36:10;8.50;72.20
21439;DHT22;10880;50.302;18.736;2023-12-14T20:53:23;8.50;72.30
21439;DHT22;10880;50.302;18.736;2023-12-14T20:55:51;8.40;72.20
21439;DHT22;10880;50.302;18.736;2023-12-14T21:00:47;8.50;72.20
21439;DHT22;10880;50.302;18.736;2023-12-14T21:05:44;8.40;72.20
21439;DHT22;10880;50.302;18.736;2023-12-14T21:08:12;8.40;72.20
21439;DHT22;10880;50.302;18.736;2023-12-14T21:15:33;8.40;72.20
21439;DHT22;10880;50.302;18.736;2023-12-14T21:20:27;8.30;72.20
21439;DHT22;10880;50.302;18.736;2023-12-14T21:25:25;8.40;72.30
21439;DHT22;10880;50.302;18.736;2023-12-14T21:27:53;8.40;72.20
21439;DHT22;10880;50.302;18.736;2023-12-14T21:45:09;8.30;72.40
21439;DHT22;10880;50.302;18.736;2023-12-14T21:50:05;8.40;72.20
21439;DHT22;10880;50.302;18.736;2023-12-14T22:02:20;8.40;72.30
21439;DHT22;10880;50.302;18.736;2023-12-14T22:12:10;8.40;72.60
21439;DHT22;10880;50.302;18.736;2023-12-14T22:14:37;8.30;72.30
21439;DHT22;10880;50.302;18.736;2023-12-14T22:19:33;8.30;72.10
21439;DHT22;10880;50.302;18.736;2023-12-14T22:22:08;6.50;71.10
21439;DHT22;10880;50.302;18.736;2023-12-14T22:29:30;8.30;72.30
21439;DHT22;10880;50.302;18.736;2023-12-14T22:31:58;8.30;72.30
21439;DHT22;10880;50.302;18.736;2023-12-14T22:49:09;8.10;72.00
21439;DHT22;10880;50.302;18.736;2023-12-14T22:54:04;8.10;71.90
21439;DHT22;10880;50.302;18.736;2023-12-14T23:01:30;8.10;71.60
21439;DHT22;10880;50.302;18.736;2023-12-14T23:03:58;7.90;71.40
21439;DHT22;10880;50.302;18.736;2023-12-14T23:11:19;7.90;71.60
21439;DHT22;10880;50.302;18.736;2023-12-14T23:13:47;7.70;71.50
21439;DHT22;10880;50.302;18.736;2023-12-14T23:18:40;7.70;71.70
21439;DHT22;10880;50.302;18.736;2023-12-14T23:28:27;7.50;71.40
21439;DHT22;10880;50.302;18.736;2023-12-14T23:33:21;7.50;71.50
21439;DHT22;10880;50.302;18.736;2023-12-14T23:40:43;7.40;71.50
21439;DHT22;10880;50.302;18.736;2023-12-14T23:43:10;7.40;71.70
21439;DHT22;10880;50.302;18.736;2023-12-14T23:48:05;7.40;71.70
21439;DHT22;10880;50.302;18.736;2023-12-14T23:50:32;7.30;71.70
